Αρχική σελίδα
METAR-TAF:

METAR-TAF

Αεροδρόμια :

Μπαμάκο, Μάλι

γεωγραφικό πλάτος: 12-32N, γεωγραφικό μήκος: 007-57W, υψόμετρο: 380 μ

Παρών καιρός

Η αναφορά έγινε 36 λεπτά πριν, στις 00:00 UTC
Άνεμος 5 kt από Α
Θερμοκρασία 21°C
Υγρασία 33%
Πίεση 1016 hPa
Ορατότητα 10 χλμ και άνω
Δεν υπάρχουν νέφη με βάση κάτω από τα 1500 μ. και δεν υπάρχουν νέφη σωρειτομελανίτες.

METAR: GABS 120000Z 08005KT CAVOK 21/04 Q1016 NOSIG

Χρόνος: 00:36 (00:36 UTC)

Πρόγνωση Καιρού

Η αναφορά έγινε 1 ώρα και 21 λεπτά πριν, στις 23:15 UTC
Η πρόγνωση ισχύει από τις 12 στις 00 UTC έως τις 13 στις 06 UTC
Άνεμος 10 kt από Α/BA
Ορατότητα 10 χλμ και άνω
Δεν υπάρχουν νέφη με βάση κάτω από τα 1500 μ. και δεν υπάρχουν νέφη σωρειτομελανίτες.

TAF: GABS 112315Z 1200/1306 07010KT CAVOK

Μετεωρολογικές αναφορές και προγνώσεις για περισσότερα από 4000 αεροδρόμια (δελτία METAR και TAF).

Οι διαθέσιμοι σταθμοί απεικονίζονται στο χάρτη με κίτρινες και κόκκινες κουκκίδες.

Μετακινήστε το ποντίκι πάνω από τις κουκκίδες για να δείτε το όνομα του σταθμού.

Στη συνέχεια, κάντε κλικ για να δείτε τις μετεωρολογικές αναφορές και τις προγνώσεις καιρού.

Για να αλλάξετε το χάρτη: κάντε κλικ στα πράσινα κουμπιά με τον μαύρο σταυρό για να ζουμάρετε, στο πράσινο κουμπί με την παύλα για να αφαιρέσετε το ζουμ ή στα πράσινα βέλη για να αντιπαραβάλλετε χάρτες.


METAR-TAF: